sensor_id;sensor_type;location;lat;lon;timestamp;pressure;altitude;pressure_sealevel;temperature;humidity
49801;BME280;35698;50.232;30.540;2022-08-01T00:00:53;100014.63;;;27.51;40.75
49801;BME280;35698;50.232;30.540;2022-08-01T00:01:57;100009.63;;;27.55;40.64
49801;BME280;35698;50.232;30.540;2022-08-01T00:03:00;100004.61;;;27.52;40.61
49801;BME280;35698;50.232;30.540;2022-08-01T00:04:12;100006.57;;;27.64;40.67
49801;BME280;35698;50.232;30.540;2022-08-01T00:05:16;100006.28;;;27.53;40.59
49801;BME280;35698;50.232;30.540;2022-08-01T00:06:20;100003.34;;;27.48;40.75
49801;BME280;35698;50.232;30.540;2022-08-01T00:07:23;100010.04;;;27.52;40.65
49801;BME280;35698;50.232;30.540;2022-08-01T00:08:34;100002.94;;;27.51;41.00
49801;BME280;35698;50.232;30.540;2022-08-01T00:09:38;100006.66;;;27.43;40.85
49801;BME280;35698;50.232;30.540;2022-08-01T00:10:42;100007.07;;;27.40;40.97
49801;BME280;35698;50.232;30.540;2022-08-01T00:11:53;100005.47;;;27.59;40.83
49801;BME280;35698;50.232;30.540;2022-08-01T00:12:58;100001.27;;;27.50;40.76
49801;BME280;35698;50.232;30.540;2022-08-01T00:14:02;100004.18;;;27.48;40.82
49801;BME280;35698;50.232;30.540;2022-08-01T00:15:14;100001.55;;;27.61;40.80
49801;BME280;35698;50.232;30.540;2022-08-01T00:16:20;100000.86;;;27.53;40.72
49801;BME280;35698;50.232;30.540;2022-08-01T00:17:32;99999.47;;;27.63;40.76
49801;BME280;35698;50.232;30.540;2022-08-01T00:18:37;100000.45;;;27.56;40.65
49801;BME280;35698;50.232;30.540;2022-08-01T00:19:58;99998.00;;;27.61;40.51
49801;BME280;35698;50.232;30.540;2022-08-01T00:21:24;100003.22;;;27.62;40.74
49801;BME280;35698;50.232;30.540;2022-08-01T00:22:27;99999.41;;;27.57;40.64
49801;BME280;35698;50.232;30.540;2022-08-01T00:23:31;100000.86;;;27.53;40.68
49801;BME280;35698;50.232;30.540;2022-08-01T00:24:42;99997.19;;;27.67;40.60
49801;BME280;35698;50.232;30.540;2022-08-01T00:25:46;100001.50;;;27.55;40.55
49801;BME280;35698;50.232;30.540;2022-08-01T00:26:57;99999.06;;;27.66;40.62
49801;BME280;35698;50.232;30.540;2022-08-01T00:28:00;100001.70;;;27.53;40.77
49801;BME280;35698;50.232;30.540;2022-08-01T00:29:11;99994.47;;;27.67;40.68
49801;BME280;35698;50.232;30.540;2022-08-01T00:30:18;99991.27;;;27.57;40.57
49801;BME280;35698;50.232;30.540;2022-08-01T00:31:22;99996.06;;;27.55;40.63
49801;BME280;35698;50.232;30.540;2022-08-01T00:32:25;99994.37;;;27.47;40.96
49801;BME280;35698;50.232;30.540;2022-08-01T00:33:29;99998.15;;;27.53;40.79
49801;BME280;35698;50.232;30.540;2022-08-01T00:34:40;99995.92;;;27.63;40.73
49801;BME280;35698;50.232;30.540;2022-08-01T00:35:43;99992.72;;;27.53;40.68
49801;BME280;35698;50.232;30.540;2022-08-01T00:36:47;99988.97;;;27.54;40.71
49801;BME280;35698;50.232;30.540;2022-08-01T00:37:50;99991.13;;;27.78;40.24
49801;BME280;35698;50.232;30.540;2022-08-01T00:39:01;99998.27;;;27.92;40.22
49801;BME280;35698;50.232;30.540;2022-08-01T00:40:06;99984.44;;;27.74;40.24
49801;BME280;35698;50.232;30.540;2022-08-01T00:41:10;99989.47;;;27.84;40.01
49801;BME280;35698;50.232;30.540;2022-08-01T00:42:21;99993.46;;;27.94;39.98
49801;BME280;35698;50.232;30.540;2022-08-01T00:43:24;99992.19;;;27.84;40.01
49801;BME280;35698;50.232;30.540;2022-08-01T00:44:35;99990.11;;;27.92;39.95
49801;BME280;35698;50.232;30.540;2022-08-01T00:45:39;99993.64;;;27.80;39.94
49801;BME280;35698;50.232;30.540;2022-08-01T00:46:43;99993.64;;;27.80;39.94
49801;BME280;35698;50.232;30.540;2022-08-01T00:47:46;99992.80;;;27.79;39.93
49801;BME280;35698;50.232;30.540;2022-08-01T00:48:49;99988.84;;;27.82;39.94
49801;BME280;35698;50.232;30.540;2022-08-01T00:50:00;99991.38;;;27.96;39.91
49801;BME280;35698;50.232;30.540;2022-08-01T00:51:06;99985.30;;;27.88;39.76
49801;BME280;35698;50.232;30.540;2022-08-01T00:52:10;99984.05;;;27.90;39.67
49801;BME280;35698;50.232;30.540;2022-08-01T00:53:14;99982.17;;;27.91;39.61
49801;BME280;35698;50.232;30.540;2022-08-01T00:54:25;99984.48;;;28.00;39.75
49801;BME280;35698;50.232;30.540;2022-08-01T00:55:31;99988.86;;;27.88;39.66
49801;BME280;35698;50.232;30.540;2022-08-01T00:56:35;99980.51;;;27.90;39.68
49801;BME280;35698;50.232;30.540;2022-08-01T00:57:39;99981.33;;;27.84;39.80
49801;BME280;35698;50.232;30.540;2022-08-01T00:58:51;99981.56;;;27.95;40.00
49801;BME280;35698;50.232;30.540;2022-08-01T00:59:56;99983.20;;;27.83;39.98
49801;BME280;35698;50.232;30.540;2022-08-01T01:01:09;99981.34;;;27.90;40.12
49801;BME280;35698;50.232;30.540;2022-08-01T01:02:15;99978.39;;;27.79;40.11
49801;BME280;35698;50.232;30.540;2022-08-01T01:03:19;99983.20;;;27.83;39.93
49801;BME280;35698;50.232;30.540;2022-08-01T01:04:30;99976.34;;;27.94;40.09
49801;BME280;35698;50.232;30.540;2022-08-01T01:05:36;99973.38;;;27.75;40.29
49801;BME280;35698;50.232;30.540;2022-08-01T01:07:21;99981.34;;;27.90;40.27
49801;BME280;35698;50.232;30.540;2022-08-01T01:08:30;99982.80;;;27.86;40.04
49801;BME280;35698;50.232;30.540;2022-08-01T01:10:02;99981.56;;;27.95;40.11
49801;BME280;35698;50.232;30.540;2022-08-01T01:11:18;99976.33;;;27.87;40.07
49801;BME280;35698;50.232;30.540;2022-08-01T01:12:44;99975.90;;;27.84;40.11
49801;BME280;35698;50.232;30.540;2022-08-01T01:13:59;99969.86;;;27.95;39.91
49801;BME280;35698;50.232;30.540;2022-08-01T01:15:15;99981.34;;;27.90;39.98
49801;BME280;35698;50.232;30.540;2022-08-01T01:16:20;99979.88;;;27.88;39.88
49801;BME280;35698;50.232;30.540;2022-08-01T01:17:28;99980.92;;;27.87;39.94
49801;BME280;35698;50.232;30.540;2022-08-01T01:18:54;99988.47;;;28.04;39.84
49801;BME280;35698;50.232;30.540;2022-08-01T01:20:00;99983.84;;;27.92;39.77
49801;BME280;35698;50.232;30.540;2022-08-01T01:24:28;99979.27;;;27.99;39.58
49801;BME280;35698;50.232;30.540;2022-08-01T01:27:41;99984.47;;;27.87;39.95
49801;BME280;35698;50.232;30.540;2022-08-01T01:30:16;99982.15;;;27.64;40.36
49801;BME280;35698;50.232;30.540;2022-08-01T01:31:28;99982.98;;;27.78;40.46
49801;BME280;35698;50.232;30.540;2022-08-01T01:32:37;99978.62;;;27.70;40.22
49801;BME280;35698;50.232;30.540;2022-08-01T01:33:50;99982.59;;;27.88;40.17
49801;BME280;35698;50.232;30.540;2022-08-01T01:34:56;99977.38;;;27.73;40.18
49801;BME280;35698;50.232;30.540;2022-08-01T01:36:05;99982.36;;;27.76;40.21
49801;BME280;35698;50.232;30.540;2022-08-01T01:37:18;99982.80;;;27.73;40.37
49801;BME280;35698;50.232;30.540;2022-08-01T01:38:29;99984.64;;;27.59;40.52
49801;BME280;35698;50.232;30.540;2022-08-01T01:39:42;99990.10;;;27.86;40.47
49801;BME280;35698;50.232;30.540;2022-08-01T01:40:50;99978.60;;;27.77;40.19
49801;BME280;35698;50.232;30.540;2022-08-01T01:41:56;99977.98;;;27.82;39.93
49801;BME280;35698;50.232;30.540;2022-08-01T01:43:01;99979.45;;;27.84;39.68
49801;BME280;35698;50.232;30.540;2022-08-01T01:44:13;99982.38;;;27.89;40.02
49801;BME280;35698;50.232;30.540;2022-08-01T01:45:18;99983.19;;;27.77;40.19
49801;BME280;35698;50.232;30.540;2022-08-01T01:46:31;99976.95;;;27.89;40.23
49801;BME280;35698;50.232;30.540;2022-08-01T01:47:36;99977.38;;;27.93;39.79
49801;BME280;35698;50.232;30.540;2022-08-01T01:48:49;99989.72;;;28.02;39.84
49801;BME280;35698;50.232;30.540;2022-08-01T01:49:54;99989.91;;;27.94;39.79
49801;BME280;35698;50.232;30.540;2022-08-01T01:51:07;99984.30;;;28.08;39.76
49801;BME280;35698;50.232;30.540;2022-08-01T01:52:13;99989.30;;;27.98;39.62
49801;BME280;35698;50.232;30.540;2022-08-01T01:53:19;99980.94;;;28.00;39.41
49801;BME280;35698;50.232;30.540;2022-08-01T01:54:26;99977.39;;;27.99;39.34
49801;BME280;35698;50.232;30.540;2022-08-01T01:55:39;99982.62;;;28.07;39.51
49801;BME280;35698;50.232;30.540;2022-08-01T01:56:47;99981.14;;;27.92;39.68
49801;BME280;35698;50.232;30.540;2022-08-01T01:58:00;99984.48;;;28.00;39.80
49801;BME280;35698;50.232;30.540;2022-08-01T01:59:04;99983.20;;;27.83;39.90
49801;BME280;35698;50.232;30.540;2022-08-01T02:00:27;99987.19;;;27.87;40.02
49801;BME280;35698;50.232;30.540;2022-08-01T02:01:40;99976.98;;;28.02;40.04
49801;BME280;35698;50.232;30.540;2022-08-01T02:02:46;99981.34;;;27.90;39.99
49801;BME280;35698;50.232;30.540;2022-08-01T02:03:51;99983.22;;;27.90;39.98
49801;BME280;35698;50.232;30.540;2022-08-01T02:05:05;99986.80;;;28.03;39.92
49801;BME280;35698;50.232;30.540;2022-08-01T02:06:11;99976.55;;;27.92;39.93
49801;BME280;35698;50.232;30.540;2022-08-01T02:07:17;99986.98;;;27.95;39.81
49801;BME280;35698;50.232;30.540;2022-08-01T02:08:31;99983.45;;;28.08;39.91
49801;BME280;35698;50.232;30.540;2022-08-01T02:09:37;99984.27;;;27.95;40.03
49801;BME280;35698;50.232;30.540;2022-08-01T02:10:41;99982.17;;;27.91;40.01
49801;BME280;35698;50.232;30.540;2022-08-01T02:11:53;99977.19;;;28.07;40.03
49801;BME280;35698;50.232;30.540;2022-08-01T02:13:03;99976.55;;;27.92;40.05
49801;BME280;35698;50.232;30.540;2022-08-01T02:14:17;99978.02;;;28.01;40.01
49801;BME280;35698;50.232;30.540;2022-08-01T02:15:22;99977.79;;;27.90;40.02
49801;BME280;35698;50.232;30.540;2022-08-01T02:16:34;99979.46;;;27.91;40.05
49801;BME280;35698;50.232;30.540;2022-08-01T02:17:42;99975.06;;;27.83;40.22
49801;BME280;35698;50.232;30.540;2022-08-01T02:18:54;99978.63;;;27.90;40.32
49801;BME280;35698;50.232;30.540;2022-08-01T02:19:58;99982.80;;;27.73;40.34
49801;BME280;35698;50.232;30.540;2022-08-01T02:21:12;99978.00;;;27.88;40.26
49801;BME280;35698;50.232;30.540;2022-08-01T02:22:29;99975.48;;;27.87;40.02
49801;BME280;35698;50.232;30.540;2022-08-01T02:23:40;99981.15;;;27.98;40.04
49801;BME280;35698;50.232;30.540;2022-08-01T02:25:00;99975.48;;;27.87;40.10
49801;BME280;35698;50.232;30.540;2022-08-01T02:26:24;99982.58;;;27.81;40.33
49801;BME280;35698;50.232;30.540;2022-08-01T02:28:56;99983.64;;;27.93;40.10
49801;BME280;35698;50.232;30.540;2022-08-01T02:31:16;99973.61;;;27.87;40.32
49801;BME280;35698;50.232;30.540;2022-08-01T02:33:46;99974.45;;;27.94;40.21
49801;BME280;35698;50.232;30.540;2022-08-01T02:34:51;99978.19;;;27.80;40.29
49801;BME280;35698;50.232;30.540;2022-08-01T02:36:06;99979.68;;;27.96;40.11
49801;BME280;35698;50.232;30.540;2022-08-01T02:37:12;99977.78;;;27.83;40.14
49801;BME280;35698;50.232;30.540;2022-08-01T02:38:38;99971.72;;;27.81;40.24
49801;BME280;35698;50.232;30.540;2022-08-01T02:39:52;99976.11;;;27.82;40.42
49801;BME280;35698;50.232;30.540;2022-08-01T02:40:59;99971.31;;;27.71;40.41
49801;BME280;35698;50.232;30.540;2022-08-01T02:42:06;99969.41;;;27.78;40.31
49801;BME280;35698;50.232;30.540;2022-08-01T02:43:12;99965.86;;;27.78;40.22
49801;BME280;35698;50.232;30.540;2022-08-01T02:44:24;99962.33;;;27.84;40.38
49801;BME280;35698;50.232;30.540;2022-08-01T02:45:30;99967.74;;;27.77;40.29
49801;BME280;35698;50.232;30.540;2022-08-01T02:46:45;99968.58;;;27.78;40.29
49801;BME280;35698;50.232;30.540;2022-08-01T02:47:59;99963.37;;;27.89;40.17
49801;BME280;35698;50.232;30.540;2022-08-01T02:49:05;99963.37;;;27.83;40.20
49801;BME280;35698;50.232;30.540;2022-08-01T02:50:17;99963.19;;;27.97;40.13
49801;BME280;35698;50.232;30.540;2022-08-01T02:51:23;99969.85;;;27.88;40.01
49801;BME280;35698;50.232;30.540;2022-08-01T02:52:28;99965.05;;;27.90;40.01
49801;BME280;35698;50.232;30.540;2022-08-01T02:53:41;99969.05;;;28.07;39.92
49801;BME280;35698;50.232;30.540;2022-08-01T02:54:50;99966.73;;;27.98;39.84
49801;BME280;35698;50.232;30.540;2022-08-01T02:56:05;99964.45;;;28.15;39.75
49801;BME280;35698;50.232;30.540;2022-08-01T02:57:10;99964.23;;;28.03;39.62
49801;BME280;35698;50.232;30.540;2022-08-01T02:58:18;99967.38;;;28.06;39.57
49801;BME280;35698;50.232;30.540;2022-08-01T02:59:24;99971.14;;;28.12;39.59
49801;BME280;35698;50.232;30.540;2022-08-01T03:00:31;99957.56;;;28.19;39.50
49801;BME280;35698;50.232;30.540;2022-08-01T03:01:45;99961.98;;;28.33;39.46
49801;BME280;35698;50.232;30.540;2022-08-01T03:02:51;99963.86;;;28.26;39.29
49801;BME280;35698;50.232;30.540;2022-08-01T03:03:55;99968.46;;;28.25;39.25
49801;BME280;35698;50.232;30.540;2022-08-01T03:05:07;99968.66;;;28.37;39.32
49801;BME280;35698;50.232;30.540;2022-08-01T03:06:14;99973.05;;;28.25;39.26
49801;BME280;35698;50.232;30.540;2022-08-01T03:07:19;99963.03;;;28.25;39.32
49801;BME280;35698;50.232;30.540;2022-08-01T03:08:25;99969.72;;;28.29;39.30
49801;BME280;35698;50.232;30.540;2022-08-01T03:09:40;99967.62;;;28.45;39.21
49801;BME280;35698;50.232;30.540;2022-08-01T03:10:45;99963.44;;;28.42;39.05
49801;BME280;35698;50.232;30.540;2022-08-01T03:11:50;99967.62;;;28.45;39.02
49801;BME280;35698;50.232;30.540;2022-08-01T03:13:03;99968.61;;;28.63;38.83
49801;BME280;35698;50.232;30.540;2022-08-01T03:14:09;99962.18;;;28.51;38.83
49801;BME280;35698;50.232;30.540;2022-08-01T03:15:21;99973.42;;;28.61;38.78
49801;BME280;35698;50.232;30.540;2022-08-01T03:16:27;99975.34;;;28.54;38.76
49801;BME280;35698;50.232;30.540;2022-08-01T03:17:32;99974.72;;;28.52;38.88
49801;BME280;35698;50.232;30.540;2022-08-01T03:18:38;99980.36;;;28.57;38.78
49801;BME280;35698;50.232;30.540;2022-08-01T03:19:52;99970.69;;;28.75;38.71
49801;BME280;35698;50.232;30.540;2022-08-01T03:20:57;99974.67;;;28.65;38.69
49801;BME280;35698;50.232;30.540;2022-08-01T03:22:11;99968.79;;;28.82;38.59
49801;BME280;35698;50.232;30.540;2022-08-01T03:23:17;99978.64;;;28.69;38.56
49801;BME280;35698;50.232;30.540;2022-08-01T03:24:31;99975.72;;;28.84;38.58
49801;BME280;35698;50.232;30.540;2022-08-01T03:25:38;99976.76;;;28.70;38.60
49801;BME280;35698;50.232;30.540;2022-08-01T03:26:51;99979.48;;;28.83;38.62
49801;BME280;35698;50.232;30.540;2022-08-01T03:27:58;99983.03;;;28.70;38.63
49801;BME280;35698;50.232;30.540;2022-08-01T03:29:18;99986.59;;;28.84;38.64
49801;BME280;35698;50.232;30.540;2022-08-01T03:30:25;99983.86;;;28.71;38.66
49801;BME280;35698;50.232;30.540;2022-08-01T03:31:29;99982.61;;;28.73;38.61
49801;BME280;35698;50.232;30.540;2022-08-01T03:32:33;99985.33;;;28.73;38.60
49801;BME280;35698;50.232;30.540;2022-08-01T03:33:37;99978.63;;;28.76;38.55
49801;BME280;35698;50.232;30.540;2022-08-01T03:34:48;99976.95;;;28.95;38.41
49801;BME280;35698;50.232;30.540;2022-08-01T03:35:53;99977.39;;;28.85;38.38
49801;BME280;35698;50.232;30.540;2022-08-01T03:37:07;99970.27;;;28.91;38.39
49801;BME280;35698;50.232;30.540;2022-08-01T03:38:12;99970.89;;;28.93;38.38
49801;BME280;35698;50.232;30.540;2022-08-01T03:39:22;99982.39;;;28.95;38.38
49801;BME280;35698;50.232;30.540;2022-08-01T03:40:38;99974.02;;;28.96;38.37
49801;BME280;35698;50.232;30.540;2022-08-01T03:41:54;99977.95;;;29.07;38.41
49801;BME280;35698;50.232;30.540;2022-08-01T03:44:15;99981.52;;;29.08;38.50
49801;BME280;35698;50.232;30.540;2022-08-01T03:45:23;99977.14;;;29.00;38.42
49801;BME280;35698;50.232;30.540;2022-08-01T03:46:42;99984.62;;;29.18;38.33
49801;BME280;35698;50.232;30.540;2022-08-01T03:47:46;99979.82;;;29.13;38.25
49801;BME280;35698;50.232;30.540;2022-08-01T03:48:55;99975.41;;;29.19;38.12
49801;BME280;35698;50.232;30.540;2022-08-01T03:50:08;99975.57;;;29.30;38.12
49801;BME280;35698;50.232;30.540;2022-08-01T03:51:15;99974.98;;;29.22;38.11
49801;BME280;35698;50.232;30.540;2022-08-01T03:52:21;99970.56;;;29.27;38.09
49801;BME280;35698;50.232;30.540;2022-08-01T03:53:30;99973.47;;;29.32;38.05
49801;BME280;35698;50.232;30.540;2022-08-01T03:54:46;99971.31;;;29.48;37.93
49801;BME280;35698;50.232;30.540;2022-08-01T03:55:49;99973.88;;;29.43;37.90
49801;BME280;35698;50.232;30.540;2022-08-01T03:56:53;99974.03;;;29.48;37.89
49801;BME280;35698;50.232;30.540;2022-08-01T03:57:58;99971.89;;;29.56;37.82
49801;BME280;35698;50.232;30.540;2022-08-01T03:59:02;99968.30;;;29.62;37.73
49801;BME280;35698;50.232;30.540;2022-08-01T04:00:14;99972.36;;;29.85;37.60
49801;BME280;35698;50.232;30.540;2022-08-01T04:01:18;99974.91;;;29.80;37.50
49801;BME280;35698;50.232;30.540;2022-08-01T04:02:22;99973.80;;;29.87;37.43
49801;BME280;35698;50.232;30.540;2022-08-01T04:03:34;99977.70;;;30.05;37.24
49801;BME280;35698;50.232;30.540;2022-08-01T04:04:40;99970.59;;;29.97;37.14
49801;BME280;35698;50.232;30.540;2022-08-01T04:05:44;99976.16;;;30.15;36.70
49801;BME280;35698;50.232;30.540;2022-08-01T04:06:48;99980.11;;;30.19;36.69
49801;BME280;35698;50.232;30.540;2022-08-01T04:07:59;99986.42;;;30.38;36.68
49801;BME280;35698;50.232;30.540;2022-08-01T04:09:02;99979.39;;;30.30;36.45
49801;BME280;35698;50.232;30.540;2022-08-01T04:10:13;99978.58;;;30.48;36.28
49801;BME280;35698;50.232;30.540;2022-08-01T04:11:17;99984.47;;;30.45;36.34
49801;BME280;35698;50.232;30.540;2022-08-01T04:12:21;99984.25;;;30.47;36.21
49801;BME280;35698;50.232;30.540;2022-08-01T04:13:32;99978.87;;;30.65;36.16
49801;BME280;35698;50.232;30.540;2022-08-01T04:14:37;99979.57;;;30.54;35.98
49801;BME280;35698;50.232;30.540;2022-08-01T04:15:48;99972.52;;;30.71;35.72
49801;BME280;35698;50.232;30.540;2022-08-01T04:16:52;99974.70;;;30.62;35.69
49801;BME280;35698;50.232;30.540;2022-08-01T04:17:55;99977.20;;;30.64;35.64
49801;BME280;35698;50.232;30.540;2022-08-01T04:19:06;99972.61;;;30.83;35.62
49801;BME280;35698;50.232;30.540;2022-08-01T04:20:11;99970.78;;;30.77;35.58
49801;BME280;35698;50.232;30.540;2022-08-01T04:21:17;99969.27;;;30.81;35.45
49801;BME280;35698;50.232;30.540;2022-08-01T04:22:21;99975.94;;;30.85;35.37
49801;BME280;35698;50.232;30.540;2022-08-01T04:23:26;99963.91;;;30.92;35.23
49801;BME280;35698;50.232;30.540;2022-08-01T04:24:39;99973.56;;;31.13;35.07
49801;BME280;35698;50.232;30.540;2022-08-01T04:25:44;99976.11;;;31.08;34.97
49801;BME280;35698;50.232;30.540;2022-08-01T04:26:50;99970.83;;;31.13;34.81
49801;BME280;35698;50.232;30.540;2022-08-01T04:27:54;99972.64;;;31.19;34.77
49801;BME280;35698;50.232;30.540;2022-08-01T04:29:00;99968.14;;;31.25;34.65
49801;BME280;35698;50.232;30.540;2022-08-01T04:30:13;99970.47;;;31.40;34.38
49801;BME280;35698;50.232;30.540;2022-08-01T04:31:20;99966.99;;;31.33;34.43
49801;BME280;35698;50.232;30.540;2022-08-01T04:32:25;99969.03;;;31.37;34.22
49801;BME280;35698;50.232;30.540;2022-08-01T04:33:30;99966.22;;;31.44;34.21
49801;BME280;35698;50.232;30.540;2022-08-01T04:34:44;99965.12;;;31.63;34.05
49801;BME280;35698;50.232;30.540;2022-08-01T04:35:48;99969.75;;;31.62;33.97
49801;BME280;35698;50.232;30.540;2022-08-01T04:37:04;99967.09;;;31.74;33.82
49801;BME280;35698;50.232;30.540;2022-08-01T04:38:13;99959.36;;;31.71;33.72
49801;BME280;35698;50.232;30.540;2022-08-01T04:39:27;99967.36;;;31.84;33.48
49801;BME280;35698;50.232;30.540;2022-08-01T04:40:32;99966.02;;;31.75;33.61
49801;BME280;35698;50.232;30.540;2022-08-01T04:41:46;99962.03;;;31.89;33.16
49801;BME280;35698;50.232;30.540;2022-08-01T04:42:50;99953.47;;;31.86;33.42
49801;BME280;35698;50.232;30.540;2022-08-01T04:43:53;99965.83;;;31.88;33.33
49801;BME280;35698;50.232;30.540;2022-08-01T04:45:05;99951.27;;;32.06;33.08
49801;BME280;35698;50.232;30.540;2022-08-01T04:46:10;99965.03;;;32.00;33.03
49801;BME280;35698;50.232;30.540;2022-08-01T04:47:23;99962.19;;;32.18;32.81
49801;BME280;35698;50.232;30.540;2022-08-01T04:48:26;99965.02;;;32.11;32.82
49801;BME280;35698;50.232;30.540;2022-08-01T04:49:48;99963.72;;;32.14;32.75
49801;BME280;35698;50.232;30.540;2022-08-01T04:51:00;99959.97;;;32.26;32.71
49801;BME280;35698;50.232;30.540;2022-08-01T04:52:04;99962.19;;;32.18;32.81
49801;BME280;35698;50.232;30.540;2022-08-01T04:53:18;99966.75;;;32.36;32.72
49801;BME280;35698;50.232;30.540;2022-08-01T04:54:30;99953.92;;;32.36;32.72
49801;BME280;35698;50.232;30.540;2022-08-01T04:55:34;99955.34;;;32.27;32.82
49801;BME280;35698;50.232;30.540;2022-08-01T04:56:39;99957.59;;;32.30;32.52
49801;BME280;35698;50.232;30.540;2022-08-01T04:57:44;99947.14;;;32.39;32.47
49801;BME280;35698;50.232;30.540;2022-08-01T04:58:48;99951.31;;;32.41;32.53
49801;BME280;35698;50.232;30.540;2022-08-01T04:59:51;99954.87;;;32.53;32.51
49801;BME280;35698;50.232;30.540;2022-08-01T05:01:03;99955.73;;;32.77;32.36
49801;BME280;35698;50.232;30.540;2022-08-01T05:02:09;99951.66;;;32.68;32.45
49801;BME280;35698;50.232;30.540;2022-08-01T05:03:12;99959.16;;;32.73;32.51
49801;BME280;35698;50.232;30.540;2022-08-01T05:04:23;99951.16;;;32.95;32.48
49801;BME280;35698;50.232;30.540;2022-08-01T05:05:27;99956.44;;;32.84;32.62
49801;BME280;35698;50.232;30.540;2022-08-01T05:06:32;99959.53;;;32.88;32.50
49801;BME280;35698;50.232;30.540;2022-08-01T05:07:37;99959.12;;;32.96;32.03
49801;BME280;35698;50.232;30.540;2022-08-01T05:08:49;99958.52;;;33.06;31.60
49801;BME280;35698;50.232;30.540;2022-08-01T05:09:53;99954.25;;;32.98;31.85
49801;BME280;35698;50.232;30.540;2022-08-01T05:12:58;99960.73;;;33.20;31.17
49801;BME280;35698;50.232;30.540;2022-08-01T05:14:11;99962.70;;;33.48;30.61
49801;BME280;35698;50.232;30.540;2022-08-01T05:15:17;99958.34;;;33.36;30.84
49801;BME280;35698;50.232;30.540;2022-08-01T05:16:22;99960.35;;;33.40;30.88
49801;BME280;35698;50.232;30.540;2022-08-01T05:17:27;99961.44;;;33.28;30.81
49801;BME280;35698;50.232;30.540;2022-08-01T05:18:31;99962.05;;;33.30;30.33
49801;BME280;35698;50.232;30.540;2022-08-01T05:19:43;99955.56;;;33.47;30.24
49801;BME280;35698;50.232;30.540;2022-08-01T05:20:47;99957.13;;;33.43;30.39
49801;BME280;35698;50.232;30.540;2022-08-01T05:21:51;99954.14;;;33.45;30.54
49801;BME280;35698;50.232;30.540;2022-08-01T05:23:06;99948.23;;;33.65;29.92
49801;BME280;35698;50.232;30.540;2022-08-01T05:24:12;99951.84;;;33.53;29.89
49801;BME280;35698;50.232;30.540;2022-08-01T05:25:23;99950.33;;;33.74;29.49
49801;BME280;35698;50.232;30.540;2022-08-01T05:26:31;99944.41;;;33.66;29.21
49801;BME280;35698;50.232;30.540;2022-08-01T05:27:52;99949.16;;;33.70;29.32
49801;BME280;35698;50.232;30.540;2022-08-01T05:29:03;99950.51;;;33.84;29.01
49801;BME280;35698;50.232;30.540;2022-08-01T05:30:09;99950.33;;;33.74;28.91
49801;BME280;35698;50.232;30.540;2022-08-01T05:31:27;99949.02;;;33.94;28.77
49801;BME280;35698;50.232;30.540;2022-08-01T05:32:32;99951.34;;;33.85;28.71
49801;BME280;35698;50.232;30.540;2022-08-01T05:33:54;99945.12;;;33.90;28.59
49801;BME280;35698;50.232;30.540;2022-08-01T05:35:06;99945.72;;;34.08;28.14
49801;BME280;35698;50.232;30.540;2022-08-01T05:36:10;99958.75;;;34.01;28.10
49801;BME280;35698;50.232;30.540;2022-08-01T05:37:13;99953.36;;;34.06;28.15
49801;BME280;35698;50.232;30.540;2022-08-01T05:38:18;99943.80;;;34.09;28.17
49801;BME280;35698;50.232;30.540;2022-08-01T05:39:31;99958.59;;;34.25;28.32
49801;BME280;35698;50.232;30.540;2022-08-01T05:40:37;99956.27;;;34.16;28.16
49801;BME280;35698;50.232;30.540;2022-08-01T05:41:43;99957.19;;;34.22;28.16
49801;BME280;35698;50.232;30.540;2022-08-01T05:42:51;99957.84;;;34.29;27.93
49801;BME280;35698;50.232;30.540;2022-08-01T05:44:06;99961.45;;;34.46;27.59
49801;BME280;35698;50.232;30.540;2022-08-01T05:45:11;99962.95;;;34.37;27.67
49801;BME280;35698;50.232;30.540;2022-08-01T05:46:24;99958.53;;;34.53;27.67
49801;BME280;35698;50.232;30.540;2022-08-01T05:47:34;99960.61;;;34.46;27.67
49801;BME280;35698;50.232;30.540;2022-08-01T05:48:40;99965.92;;;34.53;27.76
49801;BME280;35698;50.232;30.540;2022-08-01T05:49:52;99955.73;;;34.70;27.21
49801;BME280;35698;50.232;30.540;2022-08-01T05:50:57;99959.77;;;34.62;27.45
49801;BME280;35698;50.232;30.540;2022-08-01T05:52:11;99963.53;;;34.78;27.45
49801;BME280;35698;50.232;30.540;2022-08-01T05:53:18;99966.77;;;34.75;27.58
49801;BME280;35698;50.232;30.540;2022-08-01T05:54:31;99962.36;;;34.91;27.17
49801;BME280;35698;50.232;30.540;2022-08-01T05:55:36;99959.30;;;34.87;27.37
49801;BME280;35698;50.232;30.540;2022-08-01T05:56:49;99957.91;;;35.06;27.02
49801;BME280;35698;50.232;30.540;2022-08-01T05:57:55;99960.27;;;34.98;27.04
49801;BME280;35698;50.232;30.540;2022-08-01T05:59:11;99954.97;;;35.13;26.64
49801;BME280;35698;50.232;30.540;2022-08-01T06:00:17;99970.55;;;35.07;26.82
49801;BME280;35698;50.232;30.540;2022-08-01T06:01:42;99969.53;;;35.13;26.65
49801;BME280;35698;50.232;30.540;2022-08-01T06:02:58;99964.13;;;35.40;26.32
49801;BME280;35698;50.232;30.540;2022-08-01T06:04:09;99959.72;;;35.39;26.23
49801;BME280;35698;50.232;30.540;2022-08-01T06:05:25;99965.90;;;35.52;26.40
49801;BME280;35698;50.232;30.540;2022-08-01T06:06:38;99956.20;;;35.44;26.18
49801;BME280;35698;50.232;30.540;2022-08-01T06:07:57;99950.06;;;35.64;25.97
49801;BME280;35698;50.232;30.540;2022-08-01T06:09:10;99945.45;;;35.69;25.87
49801;BME280;35698;50.232;30.540;2022-08-01T06:10:14;99946.48;;;35.63;26.02
49801;BME280;35698;50.232;30.540;2022-08-01T06:11:25;99940.01;;;35.74;25.91
49801;BME280;35698;50.232;30.540;2022-08-01T06:12:34;99945.45;;;35.69;25.62
49801;BME280;35698;50.232;30.540;2022-08-01T06:13:38;99945.81;;;35.78;25.86
49801;BME280;35698;50.232;30.540;2022-08-01T06:14:50;99941.89;;;35.96;25.54